Terminal Aerodrome Forecast
Issued by NWS

Home | Current Version | Previous Version | Text Only | Print | Product List | Glossary Off
Versions: 1 2 3 4 5 6 7 8 9 10 11 12 13 14 15 16 17 18 19 20 21 22 23 24 25 26 27 28

291
FTUS43 KLOT 211953 AAA
TAFDPA
TAF AMD
KDPA 211953Z 2120/2218 24006KT P6SM BKN020 BKN200
     FM212100 24006KT P6SM SCT020 SCT200
     FM220100 18005KT 6SM HZ FEW250
     FM220700 22007KT 2SM BR SKC
     FM221430 22010KT 5SM BR FEW250
     FM221700 22010G17KT P6SM FEW200=

USA.gov is the U.S. government's official web portal to all federal, state and local government web resources and services.